»·PEaware :: N787FL KFUL-L70

N787FL :: KFUL-L70

FLIGHT INFORMATION

Flight Status: Arrived
Operator: Privately registered:
United States
More flights under this callsign
Pilot: Luis B. (14232)
Aircraft: CESSNA 172 SKYHAWK
(C172)
More flights by this aircraft type
Origin: KFUL Fullerton Mun
United States
Destination: L70 Agua Dulce
United States
More flights between these airports :: More routes between these airports
Route: +SLI V459 KIMMO
File this flight plan on PilotEdge
Remarks:
Altitude:
(Current/Filed)
6,000ft
Speed:
(Current/Filed)
100kts
Departed: 22-Aug-17 06:55 AM
Arrived: 22-Aug-17 07:44 AM
Distance/Time
Traveled:
41nm/0:49
Distance/Time
To Go:
Arrived

Flight Plot

Page will automatically refresh every two minutes.

Flight plan parsing failed; only flown route is shown


Map Options




Map Legend


Flown Route
Filed Route
Departure Airport
Arrival Airport
Navaid (VOR, NDB)
Fix

Horizontal Profiles

Position Reports

Time Latitude Longitude Heading Altitude Ground
Speed
22-Aug-17 06:30 33.871297 -117.978933 74 100ft 0kts
22-Aug-17 06:31 33.871297 -117.978933 74 100ft 0kts
22-Aug-17 06:32 33.871297 -117.978933 74 100ft 0kts
22-Aug-17 06:33 33.871297 -117.978933 74 100ft 0kts
22-Aug-17 06:34 33.871297 -117.978933 74 100ft 0kts
22-Aug-17 06:35 33.871297 -117.978933 74 100ft 0kts
22-Aug-17 06:36 33.871297 -117.978933 74 100ft 0kts
22-Aug-17 06:37 33.871297 -117.978933 74 100ft 0kts
22-Aug-17 06:38 33.871297 -117.978933 74 100ft 0kts
22-Aug-17 06:39 33.871297 -117.978933 74 100ft 0kts
22-Aug-17 06:40 33.871297 -117.978933 74 100ft 0kts
22-Aug-17 06:41 33.871297 -117.978933 74 100ft 0kts
22-Aug-17 06:42 33.871297 -117.978933 74 100ft 0kts
22-Aug-17 06:43 33.871297 -117.978933 74 100ft 0kts
22-Aug-17 06:44 33.871297 -117.978933 74 100ft 0kts
22-Aug-17 06:45 33.871297 -117.978933 74 100ft 0kts
22-Aug-17 06:46 33.871297 -117.978933 74 100ft 0kts
22-Aug-17 06:47 33.871297 -117.978933 74 100ft 0kts
22-Aug-17 06:48 33.871297 -117.978933 74 100ft 0kts
22-Aug-17 06:49 33.871297 -117.978933 74 100ft 0kts
22-Aug-17 06:50 33.871297 -117.978933 74 100ft 0kts
22-Aug-17 06:51 33.871297 -117.978933 74 100ft 0kts
22-Aug-17 06:52 33.871297 -117.978933 74 100ft 0kts
22-Aug-17 06:53 33.871420 -117.978785 348 100ft 2kts
22-Aug-17 06:54 33.871918 -117.978145 76 100ft 7kts
22-Aug-17 06:55 33.872048 -117.976609 208 100ft 0kts
22-Aug-17 06:56 33.872048 -117.976609 208 100ft 0kts
22-Aug-17 06:57 33.872317 -117.976066 79 100ft 9kts
22-Aug-17 06:58 33.872654 -117.974759 12 100ft 3kts
22-Aug-17 06:59 33.871699 -117.981464 257 143ft 65kts
22-Aug-17 07:00 33.859746 -117.997921 207 737ft 80kts
22-Aug-17 07:01 33.839615 -118.010307 209 1339ft 84kts
22-Aug-17 07:02 33.819576 -118.023991 212 1936ft 84kts
22-Aug-17 07:03 33.799698 -118.038799 214 2474ft 88kts
22-Aug-17 07:04 33.778700 -118.054798 210 2966ft 94kts
22-Aug-17 07:05 33.759148 -118.069776 200 3419ft 92kts
22-Aug-17 07:06 33.754797 -118.052827 20 3915ft 92kts
22-Aug-17 07:07 33.780262 -118.054220 353 4408ft 93kts
22-Aug-17 07:08 33.787372 -118.073444 201 4894ft 84kts
22-Aug-17 07:09 33.765330 -118.077673 183 5388ft 80kts
22-Aug-17 07:10 33.751318 -118.068081 66 5857ft 82kts
22-Aug-17 07:11 33.776366 -118.061141 346 6000ft 116kts
22-Aug-17 07:12 33.807225 -118.072625 26 5971ft 120kts
22-Aug-17 07:13 33.818910 -118.039761 79 6003ft 112kts
22-Aug-17 07:14 33.828014 -118.004311 70 6001ft 114kts
22-Aug-17 07:15 33.840332 -117.970098 70 6028ft 113kts
22-Aug-17 07:16 33.852763 -117.935616 69 6029ft 114kts
22-Aug-17 07:17 33.865363 -117.900656 69 6028ft 114kts
22-Aug-17 07:18 33.889094 -117.880139 11 6029ft 122kts
22-Aug-17 07:19 33.922419 -117.874410 10 6029ft 122kts
22-Aug-17 07:20 33.955742 -117.868698 10 6028ft 122kts
22-Aug-17 07:21 33.987293 -117.863578 9 6327ft 110kts
22-Aug-17 07:22 34.016243 -117.868121 346 6685ft 105kts
22-Aug-17 07:23 34.036909 -117.888396 288 7005ft 107kts
22-Aug-17 07:24 34.046744 -117.921080 285 7365ft 102kts
22-Aug-17 07:25 34.055497 -117.952888 285 7750ft 100kts
22-Aug-17 07:26 34.064669 -117.984005 286 8054ft 107kts
22-Aug-17 07:27 34.075874 -118.020374 287 8049ft 124kts
22-Aug-17 07:28 34.087948 -118.058056 288 8041ft 126kts
22-Aug-17 07:29 34.100513 -118.096699 288 8033ft 126kts
22-Aug-17 07:30 34.113240 -118.135085 289 8028ft 125kts
22-Aug-17 07:31 34.125752 -118.173146 289 8029ft 125kts
22-Aug-17 07:32 34.138455 -118.211984 289 8013ft 126kts
22-Aug-17 07:33 34.151137 -118.250723 289 8001ft 126kts
22-Aug-17 07:34 34.174786 -118.279363 332 8004ft 127kts
22-Aug-17 07:35 34.206036 -118.298546 334 8002ft 127kts
22-Aug-17 07:36 34.237661 -118.317134 335 8002ft 127kts
22-Aug-17 07:37 34.269290 -118.335425 335 8002ft 127kts
22-Aug-17 07:38 34.301177 -118.353749 336 8002ft 127kts
22-Aug-17 07:39 34.332983 -118.371971 336 8002ft 127kts
22-Aug-17 07:40 34.365106 -118.390326 336 7871ft 135kts
22-Aug-17 07:41 34.399703 -118.398001 27 7364ft 119kts
22-Aug-17 07:42 34.427255 -118.382333 28 6675ft 105kts
22-Aug-17 07:43 34.453588 -118.369229 22 5961ft 102kts
22-Aug-17 07:44 34.479798 -118.355490 38 5162ft 106kts
22-Aug-17 07:45 34.503931 -118.335944 37 4261ft 102kts
22-Aug-17 07:46 34.521578 -118.313919 66 3645ft 80kts
22-Aug-17 07:47 34.508766 -118.304585 235 2845ft 78kts
22-Aug-17 07:48 34.503227 -118.313957 334 2664ft 3kts
22-Aug-17 07:49 34.503188 -118.314639 139 2664ft 0kts
22-Aug-17 07:50 34.503189 -118.314639 139 2664ft 0kts
22-Aug-17 07:51 34.503189 -118.314639 139 2664ft 0kts
22-Aug-17 07:52 34.503189 -118.314639 139 2664ft 0kts
22-Aug-17 07:53 34.503189 -118.314639 139 2664ft 0kts
22-Aug-17 07:54 34.503189 -118.314639 139 2664ft 0kts
22-Aug-17 07:55 34.503189 -118.314639 139 2664ft 0kts
22-Aug-17 07:56 34.503189 -118.314639 139 2664ft 0kts
22-Aug-17 07:57 34.503189 -118.314639 139 2664ft 0kts
22-Aug-17 07:58 34.503189 -118.314639 139 2664ft 0kts
22-Aug-17 07:59 34.503189 -118.314639 139 2664ft 0kts
22-Aug-17 08:00 34.503188 -118.314639 139 2664ft 0kts
22-Aug-17 08:01 34.503188 -118.314639 139 2664ft 0kts
22-Aug-17 08:02 34.503188 -118.314639 139 2664ft 0kts

Navigation Log

Ident Type
Flight plan parsing failed, navigation log unavailable